createdAt,value
2018-06-25T00:00:00.439Z,64.37
2018-06-25T00:02:29.528Z,63.33
2018-06-25T00:04:58.624Z,63.49
2018-06-25T00:07:27.713Z,64.01
2018-06-25T00:09:57.061Z,64.97
2018-06-25T00:12:26.395Z,65.27
2018-06-25T00:14:55.756Z,65.54
2018-06-25T00:17:25.078Z,65.97
2018-06-25T00:19:54.392Z,64.87
2018-06-25T00:22:23.701Z,64.61
2018-06-25T00:24:53.007Z,64.84
2018-06-25T00:27:22.309Z,65.25
2018-06-25T00:29:51.828Z,65.09
2018-06-25T00:32:20.916Z,65.33
2018-06-25T00:34:50.585Z,65.71
2018-06-25T00:37:19.903Z,65.77
2018-06-25T00:39:49.214Z,64.89
2018-06-25T00:42:18.528Z,64.67
2018-06-25T00:44:47.601Z,65.12
2018-06-25T00:47:16.904Z,65.52
2018-06-25T00:49:46.209Z,65.91
2018-06-25T00:52:15.528Z,65.61
2018-06-25T00:54:44.601Z,66.61
2018-06-25T00:57:13.920Z,65.89
2018-06-25T00:59:52.392Z,65.48
2018-06-25T01:02:22.056Z,66.06
2018-06-25T01:04:51.135Z,66.46
2018-06-25T01:07:20.585Z,66.88
2018-06-25T01:09:50.161Z,66.64
2018-06-25T01:12:20.335Z,66.39
2018-06-25T01:14:49.636Z,66.63
2018-06-25T01:17:18.951Z,67.23
2018-06-25T01:19:48.264Z,66.77
2018-06-25T01:22:17.332Z,66.83
2018-06-25T01:24:46.652Z,67.79
2018-06-25T01:27:15.961Z,67.82
2018-06-25T01:29:45.034Z,67.56
2018-06-25T01:32:14.353Z,67.97
2018-06-25T01:34:43.655Z,68.28
2018-06-25T01:37:12.734Z,68.26
2018-06-25T01:39:42.031Z,68.83
2018-06-25T01:42:11.359Z,67.90
2018-06-25T01:44:40.412Z,68.50
2018-06-25T01:47:09.729Z,68.90
2018-06-25T01:49:39.041Z,67.93
2018-06-25T01:52:08.672Z,68.36
2018-06-25T01:54:37.979Z,68.64
2018-06-25T01:57:07.313Z,68.92
2018-06-25T01:59:36.613Z,68.68
2018-06-25T02:02:05.935Z,69.91
2018-06-25T02:04:35.259Z,69.67
2018-06-25T02:07:04.565Z,69.62
2018-06-25T02:09:33.644Z,69.96
2018-06-25T02:12:02.955Z,70.17
2018-06-25T02:14:32.284Z,70.17
2018-06-25T02:17:01.601Z,70.44
2018-06-25T02:19:30.916Z,70.29
2018-06-25T02:22:00.230Z,69.80
2018-06-25T02:24:29.577Z,70.23
2018-06-25T02:26:58.881Z,69.67
2018-06-25T02:29:28.192Z,70.08
2018-06-25T02:31:57.509Z,70.44
2018-06-25T02:34:26.833Z,70.43
2018-06-25T02:36:56.143Z,70.95
2018-06-25T02:39:25.449Z,70.28
2018-06-25T02:41:54.521Z,69.73
2018-06-25T02:44:23.833Z,70.50
2018-06-25T02:46:53.200Z,71.09
2018-06-25T02:49:22.503Z,71.45
2018-06-25T02:51:51.801Z,70.60
2018-06-25T02:54:21.117Z,71.67
2018-06-25T02:56:50.438Z,71.33
2018-06-25T02:59:19.792Z,71.72
2018-06-25T03:01:49.083Z,70.78
2018-06-25T03:04:18.448Z,70.93
2018-06-25T03:06:47.513Z,71.02
2018-06-25T03:09:16.846Z,70.73
2018-06-25T03:11:45.933Z,71.53
2018-06-25T03:14:15.026Z,70.89
2018-06-25T03:16:44.360Z,71.23
2018-06-25T03:19:13.700Z,71.57
2018-06-25T03:21:43.023Z,71.26
2018-06-25T03:24:12.356Z,71.19
2018-06-25T03:26:41.675Z,71.92
2018-06-25T03:29:11.003Z,71.68
2018-06-25T03:31:40.319Z,71.80
2018-06-25T03:34:09.670Z,71.97
2018-06-25T03:36:38.999Z,71.98
2018-06-25T03:39:10.288Z,71.85
2018-06-25T03:41:39.380Z,72.09
2018-06-25T03:44:09.255Z,72.79
2018-06-25T03:46:38.590Z,72.12
2018-06-25T03:49:07.700Z,71.12
2018-06-25T03:51:37.039Z,72.40
2018-06-25T03:54:06.372Z,71.67
2018-06-25T03:56:35.701Z,71.19
2018-06-25T03:59:05.075Z,72.17
2018-06-25T04:01:34.463Z,71.93
2018-06-25T04:04:03.896Z,72.27
2018-06-25T04:06:33.219Z,72.04
2018-06-25T04:09:02.552Z,72.47
2018-06-25T04:11:31.872Z,72.24
2018-06-25T04:14:01.196Z,72.43
2018-06-25T04:16:30.285Z,72.40
2018-06-25T04:19:02.662Z,72.52
2018-06-25T04:21:32.786Z,72.80
2018-06-25T04:24:01.993Z,71.94
2018-06-25T04:26:31.621Z,71.73
2018-06-25T04:29:01.153Z,72.62
2018-06-25T04:31:30.833Z,72.81
2018-06-25T04:34:00.312Z,71.93
2018-06-25T04:36:29.453Z,72.33
2018-06-25T04:38:58.784Z,71.63
2018-06-25T04:41:28.121Z,72.69
2018-06-25T04:43:57.435Z,72.57
2018-06-25T04:46:26.763Z,72.10
2018-06-25T04:48:56.135Z,71.96
2018-06-25T04:51:25.468Z,71.49
2018-06-25T04:53:54.783Z,72.17
2018-06-25T04:56:24.104Z,71.97
2018-06-25T04:58:53.202Z,72.42
2018-06-25T05:01:22.291Z,72.20
2018-06-25T05:03:51.629Z,72.43
2018-06-25T05:06:20.952Z,73.63
2018-06-25T05:08:50.341Z,73.20
2018-06-25T05:11:19.396Z,72.92
2018-06-25T05:13:48.469Z,73.06
2018-06-25T05:16:17.785Z,71.73
2018-06-25T05:18:46.911Z,71.04
2018-06-25T05:21:19.885Z,70.27
2018-06-25T05:23:49.213Z,70.35
2018-06-25T05:26:18.551Z,71.10
2018-06-25T05:28:47.876Z,70.61
2018-06-25T05:31:16.950Z,70.52
2018-06-25T05:33:46.278Z,71.47
2018-06-25T05:36:15.736Z,71.54
2018-06-25T05:38:45.201Z,71.06
2018-06-25T05:41:14.541Z,70.89
2018-06-25T05:43:43.889Z,71.74
2018-06-25T05:46:13.215Z,71.45
2018-06-25T05:48:42.565Z,70.37
2018-06-25T05:51:11.888Z,71.43
2018-06-25T05:53:41.231Z,71.52
2018-06-25T05:56:10.581Z,71.46
2018-06-25T05:58:39.676Z,70.51
2018-06-25T06:01:08.764Z,71.32
2018-06-25T06:03:37.872Z,71.35
2018-06-25T06:06:07.989Z,71.64
2018-06-25T06:08:37.329Z,71.31
2018-06-25T06:11:06.685Z,70.28
2018-06-25T06:13:35.759Z,71.35
2018-06-25T06:16:05.107Z,69.95
2018-06-25T06:18:34.455Z,71.19
2018-06-25T06:21:03.776Z,69.40
2018-06-25T06:23:32.930Z,69.72
2018-06-25T06:26:02.269Z,69.78
2018-06-25T06:28:31.402Z,70.60
2018-06-25T06:31:00.983Z,70.55
2018-06-25T06:33:30.072Z,71.03
2018-06-25T06:35:59.413Z,70.33
2018-06-25T06:38:28.760Z,71.42
2018-06-25T06:40:58.082Z,71.34
2018-06-25T06:43:27.181Z,72.37
2018-06-25T06:45:56.526Z,70.61
2018-06-25T06:48:25.948Z,70.94
2018-06-25T06:50:55.279Z,71.49
2018-06-25T06:53:24.367Z,71.44
2018-06-25T06:55:53.447Z,72.31
2018-06-25T06:58:22.785Z,70.86
2018-06-25T07:00:52.116Z,71.14
2018-06-25T07:03:21.446Z,70.17
2018-06-25T07:05:50.774Z,70.21
2018-06-25T07:08:19.847Z,69.76
2018-06-25T07:10:49.169Z,70.69
2018-06-25T07:13:18.516Z,69.78
2018-06-25T07:15:47.836Z,70.10
2018-06-25T07:18:17.209Z,69.74
2018-06-25T07:20:46.579Z,69.48
2018-06-25T07:23:15.859Z,69.48
2018-06-25T07:25:45.219Z,69.62
2018-06-25T07:28:14.584Z,70.28
2018-06-25T07:30:43.924Z,69.96
2018-06-25T07:33:13.257Z,70.43
2018-06-25T07:35:42.597Z,69.14
2018-06-25T07:38:11.928Z,70.46
2018-06-25T07:40:41.261Z,69.71
2018-06-25T07:43:10.586Z,69.34
2018-06-25T07:45:39.944Z,68.66
2018-06-25T07:48:09.280Z,68.64
2018-06-25T07:50:38.640Z,69.30
2018-06-25T07:53:07.986Z,68.99
2018-06-25T07:55:37.314Z,69.96
2018-06-25T07:58:06.921Z,69.98
2018-06-25T08:00:36.253Z,70.13
2018-06-25T08:03:05.576Z,68.11
2018-06-25T08:05:34.663Z,68.05
2018-06-25T08:08:03.995Z,68.90
2018-06-25T08:10:33.348Z,68.72
2018-06-25T08:13:02.684Z,69.70
2018-06-25T08:15:31.763Z,68.16
2018-06-25T08:18:01.124Z,68.93
2018-06-25T08:20:30.546Z,67.93
2018-06-25T08:22:59.799Z,67.72
2018-06-25T08:25:29.084Z,67.64
2018-06-25T08:27:58.424Z,64.45
2018-06-25T08:30:27.747Z,65.11
2018-06-25T08:32:57.093Z,64.07
2018-06-25T08:35:26.440Z,63.10
2018-06-25T08:37:55.769Z,62.61
2018-06-25T08:40:24.850Z,63.61
2018-06-25T08:42:54.175Z,63.38
2018-06-25T08:45:23.267Z,63.33
2018-06-25T08:47:52.357Z,0.00
2018-06-25T08:50:21.687Z,62.42
2018-06-25T08:52:51.007Z,60.44
2018-06-25T08:55:20.362Z,61.15
2018-06-25T08:57:49.435Z,62.20
2018-06-25T09:00:18.825Z,62.13
2018-06-25T09:02:48.155Z,63.72
2018-06-25T09:05:17.262Z,63.85
2018-06-25T09:07:46.600Z,64.11
2018-06-25T09:10:15.927Z,64.06
2018-06-25T09:12:45.255Z,63.54
2018-06-25T09:15:14.354Z,62.60
2018-06-25T09:17:43.680Z,62.50
2018-06-25T09:20:13.015Z,62.49
2018-06-25T09:22:42.348Z,62.81
2018-06-25T09:25:11.429Z,60.56
2018-06-25T09:27:46.179Z,61.62
2018-06-25T09:30:15.636Z,61.59
2018-06-25T09:32:44.972Z,60.92
2018-06-25T09:35:14.072Z,60.56
2018-06-25T09:37:43.420Z,60.75
2018-06-25T09:40:12.735Z,59.78
2018-06-25T09:42:42.063Z,60.90
2018-06-25T09:45:12.205Z,60.01
2018-06-25T09:47:41.577Z,59.35
2018-06-25T09:50:10.912Z,59.78
2018-06-25T09:52:40.252Z,59.09
2018-06-25T09:55:09.661Z,63.95
2018-06-25T09:57:38.998Z,63.36
2018-06-25T10:00:09.136Z,58.46
2018-06-25T10:02:38.481Z,60.35
2018-06-25T10:05:07.819Z,57.08
2018-06-25T10:07:37.139Z,57.43
2018-06-25T10:10:06.509Z,57.01
2018-06-25T10:12:35.841Z,53.51
2018-06-25T10:15:05.200Z,54.91
2018-06-25T10:17:34.527Z,54.96
2018-06-25T10:20:03.607Z,53.58
2018-06-25T10:22:32.947Z,53.32
2018-06-25T10:25:02.268Z,54.19
2018-06-25T10:27:31.608Z,52.81
2018-06-25T10:30:00.937Z,50.61
2018-06-25T10:32:30.279Z,49.71
2018-06-25T10:34:59.628Z,50.89
2018-06-25T10:37:28.860Z,51.71
2018-06-25T10:39:58.189Z,48.40
2018-06-25T10:42:27.670Z,49.49
2018-06-25T10:44:56.928Z,49.67
2018-06-25T10:47:26.021Z,49.41
2018-06-25T10:49:55.352Z,51.07
2018-06-25T10:52:24.704Z,49.73
2018-06-25T10:54:54.012Z,50.04
2018-06-25T10:57:23.105Z,51.14
2018-06-25T10:59:52.540Z,50.96
2018-06-25T11:02:21.763Z,51.25
2018-06-25T11:04:51.113Z,51.13
2018-06-25T11:07:20.236Z,53.09
2018-06-25T11:09:49.531Z,50.52
2018-06-25T11:12:18.857Z,51.54
2018-06-25T11:14:48.193Z,48.08
2018-06-25T11:17:17.540Z,50.74
2018-06-25T11:19:46.894Z,48.56
2018-06-25T11:22:16.220Z,49.47
2018-06-25T11:24:45.299Z,48.02
2018-06-25T11:27:14.722Z,49.91
2018-06-25T11:29:43.976Z,51.38
2018-06-25T11:32:13.313Z,50.72
2018-06-25T11:34:42.439Z,49.83
2018-06-25T11:37:11.784Z,51.21
2018-06-25T11:39:41.119Z,48.76
2018-06-25T11:42:10.461Z,48.21
2018-06-25T11:44:39.803Z,48.89
2018-06-25T11:47:09.146Z,50.62
2018-06-25T11:49:38.476Z,49.45
2018-06-25T11:52:09.040Z,49.21
2018-06-25T11:54:38.176Z,48.78
2018-06-25T11:57:07.504Z,50.54
2018-06-25T11:59:36.835Z,49.81
2018-06-25T12:02:06.590Z,47.48
2018-06-25T12:04:35.907Z,48.69
2018-06-25T12:07:05.271Z,46.98
2018-06-25T12:09:34.614Z,45.78
2018-06-25T12:12:04.003Z,46.02
2018-06-25T12:14:33.280Z,48.39
2018-06-25T12:17:02.612Z,45.83
2018-06-25T12:19:31.941Z,43.56
2018-06-25T12:22:01.279Z,43.32
2018-06-25T12:24:30.620Z,42.38
2018-06-25T12:26:59.956Z,43.05
2018-06-25T12:29:29.052Z,45.21
2018-06-25T12:31:58.419Z,46.97
2018-06-25T12:34:27.806Z,46.85
2018-06-25T12:36:57.136Z,46.72
2018-06-25T12:39:26.527Z,48.06
2018-06-25T12:41:55.856Z,46.92
2018-06-25T12:44:24.956Z,45.81
2018-06-25T12:46:54.035Z,46.74
2018-06-25T12:49:23.385Z,45.07
2018-06-25T12:51:52.712Z,44.45
2018-06-25T12:54:22.062Z,43.32
2018-06-25T12:56:51.402Z,43.14
2018-06-25T12:59:20.734Z,42.89
2018-06-25T13:01:50.067Z,45.25
2018-06-25T13:04:19.391Z,44.26
2018-06-25T13:06:48.728Z,45.07
2018-06-25T13:09:18.064Z,46.62
2018-06-25T13:11:47.405Z,46.42
2018-06-25T13:14:16.747Z,43.37
2018-06-25T13:16:45.842Z,43.20
2018-06-25T13:19:15.161Z,43.34
2018-06-25T13:21:44.493Z,45.11
2018-06-25T13:24:13.816Z,46.70
2018-06-25T13:26:43.167Z,47.14
2018-06-25T13:29:12.503Z,46.61
2018-06-25T13:31:41.849Z,43.58
2018-06-25T13:34:10.931Z,40.62
2018-06-25T13:36:40.260Z,41.72
2018-06-25T13:39:10.373Z,41.45
2018-06-25T13:41:39.452Z,40.20
2018-06-25T13:44:09.039Z,40.85
2018-06-25T13:46:38.391Z,42.03
2018-06-25T13:49:07.756Z,40.86
2018-06-25T13:51:37.097Z,43.02
2018-06-25T13:54:06.440Z,41.04
2018-06-25T13:56:35.779Z,41.08
2018-06-25T13:59:05.124Z,40.89
2018-06-25T14:01:34.460Z,43.06
2018-06-25T14:04:03.800Z,41.67
2018-06-25T14:06:33.124Z,42.32
2018-06-25T14:09:02.479Z,44.31
2018-06-25T14:11:31.825Z,43.87
2018-06-25T14:14:01.171Z,42.01
2018-06-25T14:16:30.298Z,40.82
2018-06-25T14:18:59.599Z,38.13
2018-06-25T14:21:28.947Z,36.75
2018-06-25T14:24:03.602Z,37.30
2018-06-25T14:26:38.004Z,38.70
2018-06-25T14:29:12.523Z,37.66
2018-06-25T14:31:41.865Z,38.46
2018-06-25T14:34:16.486Z,38.48
2018-06-25T14:36:45.970Z,40.07
2018-06-25T14:39:15.051Z,38.99
2018-06-25T14:41:44.383Z,38.32
2018-06-25T14:44:13.711Z,36.74
2018-06-25T14:46:43.039Z,36.91
2018-06-25T14:49:12.361Z,36.03
2018-06-25T14:51:41.455Z,36.94
2018-06-25T14:54:10.542Z,36.85
2018-06-25T14:56:39.874Z,35.28
2018-06-25T14:59:09.198Z,32.82
2018-06-25T15:01:38.546Z,32.91
2018-06-25T15:04:08.863Z,32.97
2018-06-25T15:06:38.205Z,33.37
2018-06-25T15:09:10.644Z,32.39
2018-06-25T15:11:39.975Z,32.09
2018-06-25T15:14:09.304Z,31.22
2018-06-25T15:16:38.632Z,32.29
2018-06-25T15:19:07.968Z,31.50
2018-06-25T15:21:37.287Z,29.57
2018-06-25T15:24:06.635Z,29.63
2018-06-25T15:26:35.954Z,30.79
2018-06-25T15:29:05.052Z,31.92
2018-06-25T15:31:34.166Z,32.56
2018-06-25T15:34:03.476Z,31.61
2018-06-25T15:36:32.788Z,31.69
2018-06-25T15:39:02.116Z,32.18
2018-06-25T15:41:31.444Z,33.88
2018-06-25T15:44:00.536Z,33.87
2018-06-25T15:46:29.606Z,33.76
2018-06-25T15:48:58.939Z,34.15
2018-06-25T15:51:28.243Z,35.87
2018-06-25T15:53:57.895Z,35.67
2018-06-25T15:56:26.999Z,35.68
2018-06-25T15:58:56.408Z,36.49
2018-06-25T16:01:25.734Z,37.74
2018-06-25T16:03:55.352Z,38.19
2018-06-25T16:06:24.430Z,38.87
2018-06-25T16:08:53.762Z,38.93
2018-06-25T16:11:23.084Z,38.85
2018-06-25T16:13:52.424Z,38.94
2018-06-25T16:16:21.751Z,38.98
2018-06-25T16:18:50.834Z,40.50
2018-06-25T16:21:20.151Z,40.92
2018-06-25T16:23:49.471Z,39.91
2018-06-25T16:26:18.795Z,40.13
2018-06-25T16:28:48.124Z,40.01
2018-06-25T16:31:17.456Z,40.01
2018-06-25T16:33:46.802Z,39.97
2018-06-25T16:36:16.121Z,39.95
2018-06-25T16:38:45.440Z,40.25
2018-06-25T16:41:14.761Z,41.04
2018-06-25T16:43:44.100Z,40.37
2018-06-25T16:46:13.479Z,41.54
2018-06-25T16:48:42.807Z,40.90
2018-06-25T16:51:12.123Z,41.67
2018-06-25T16:53:41.525Z,42.64
2018-06-25T16:56:10.862Z,44.36
2018-06-25T16:58:40.184Z,43.30
2018-06-25T17:01:09.523Z,44.25
2018-06-25T17:03:38.823Z,43.20
2018-06-25T17:06:09.373Z,42.17
2018-06-25T17:08:38.447Z,42.11
2018-06-25T17:11:07.769Z,41.52
2018-06-25T17:13:36.831Z,41.67
2018-06-25T17:16:06.204Z,41.32
2018-06-25T17:18:36.894Z,42.04
2018-06-25T17:21:06.284Z,42.22
2018-06-25T17:23:35.699Z,43.71
2018-06-25T17:26:05.173Z,44.01
2018-06-25T17:28:34.505Z,44.16
2018-06-25T17:31:03.595Z,43.20
2018-06-25T17:33:32.912Z,44.71
2018-06-25T17:36:01.990Z,43.35
2018-06-25T17:38:31.304Z,44.07
2018-06-25T17:41:00.379Z,44.80
2018-06-25T17:43:29.693Z,45.01
2018-06-25T17:45:58.791Z,44.78
2018-06-25T17:48:27.862Z,44.83
2018-06-25T17:50:57.176Z,46.06
2018-06-25T17:53:26.532Z,46.35
2018-06-25T17:55:55.857Z,44.15
2018-06-25T17:58:25.171Z,43.71
2018-06-25T18:00:54.496Z,43.98
2018-06-25T18:03:23.563Z,43.95
2018-06-25T18:05:52.960Z,45.30
2018-06-25T18:08:22.275Z,44.85
2018-06-25T18:10:51.360Z,44.96
2018-06-25T18:13:20.676Z,43.14
2018-06-25T18:15:49.752Z,42.76
2018-06-25T18:18:19.067Z,43.11
2018-06-25T18:20:48.200Z,44.12
2018-06-25T18:23:17.511Z,43.18
2018-06-25T18:25:46.859Z,43.96
2018-06-25T18:28:16.187Z,44.48
2018-06-25T18:30:45.252Z,44.29
2018-06-25T18:33:14.564Z,45.29
2018-06-25T18:35:43.891Z,44.82
2018-06-25T18:38:13.239Z,45.54
2018-06-25T18:40:42.558Z,45.08
2018-06-25T18:43:11.889Z,45.51
2018-06-25T18:45:41.219Z,45.91
2018-06-25T18:48:10.535Z,46.44
2018-06-25T18:50:39.853Z,45.96
2018-06-25T18:53:09.175Z,46.16
2018-06-25T18:55:38.253Z,46.19
2018-06-25T18:58:09.004Z,47.61
2018-06-25T19:00:38.078Z,47.00
2018-06-25T19:03:07.396Z,47.39
2018-06-25T19:05:36.513Z,48.26
2018-06-25T19:08:05.825Z,48.48
2018-06-25T19:10:35.133Z,48.07
2018-06-25T19:13:04.489Z,48.78
2018-06-25T19:15:33.555Z,49.13
2018-06-25T19:18:02.897Z,49.06
2018-06-25T19:20:32.216Z,49.28
2018-06-25T19:23:01.533Z,49.17
2018-06-25T19:25:30.861Z,49.66
2018-06-25T19:28:00.179Z,49.58
2018-06-25T19:30:29.256Z,50.60
2018-06-25T19:32:58.575Z,50.89
2018-06-25T19:35:27.638Z,51.57
2018-06-25T19:37:57.180Z,51.27
2018-06-25T19:40:26.317Z,51.58
2018-06-25T19:42:55.585Z,50.74
2018-06-25T19:45:24.891Z,52.23
2018-06-25T19:47:54.208Z,52.39
2018-06-25T19:50:23.555Z,53.78
2018-06-25T19:52:52.872Z,53.85
2018-06-25T19:55:21.939Z,54.77
2018-06-25T19:57:51.308Z,55.17
2018-06-25T20:00:20.628Z,55.01
2018-06-25T20:02:50.054Z,54.96
2018-06-25T20:05:19.285Z,55.38
2018-06-25T20:07:48.612Z,54.96
2018-06-25T20:10:17.929Z,55.13
2018-06-25T20:12:47.276Z,54.82
2018-06-25T20:15:16.414Z,55.85
2018-06-25T20:17:45.668Z,55.82
2018-06-25T20:20:14.743Z,55.96
2018-06-25T20:22:44.072Z,57.42
2018-06-25T20:25:13.396Z,58.62
2018-06-25T20:27:42.720Z,58.26
2018-06-25T20:30:12.031Z,58.99
2018-06-25T20:32:41.344Z,59.71
2018-06-25T20:35:10.712Z,59.86
2018-06-25T20:37:40.025Z,60.81
2018-06-25T20:40:09.349Z,61.32
2018-06-25T20:42:38.652Z,62.72
2018-06-25T20:45:07.988Z,62.77
2018-06-25T20:47:37.301Z,64.36
2018-06-25T20:50:06.653Z,64.14
2018-06-25T20:52:35.968Z,64.46
2018-06-25T20:55:05.435Z,64.97
2018-06-25T20:57:34.751Z,65.28
2018-06-25T21:00:04.281Z,65.32
2018-06-25T21:02:33.348Z,65.98
2018-06-25T21:05:02.766Z,66.19
2018-06-25T21:07:32.069Z,65.28
2018-06-25T21:10:01.159Z,65.55
2018-06-25T21:12:30.464Z,66.36
2018-06-25T21:14:59.543Z,65.72
2018-06-25T21:17:28.872Z,65.94
2018-06-25T21:19:58.209Z,66.18
2018-06-25T21:22:27.537Z,66.66
2018-06-25T21:24:56.857Z,66.21
2018-06-25T21:27:25.991Z,66.46
2018-06-25T21:29:55.311Z,67.55
2018-06-25T21:32:24.628Z,67.98
2018-06-25T21:34:53.944Z,67.64
2018-06-25T21:37:23.251Z,68.19
2018-06-25T21:39:52.577Z,67.40
2018-06-25T21:42:21.883Z,67.77
2018-06-25T21:44:51.210Z,68.04
2018-06-25T21:47:20.578Z,67.51
2018-06-25T21:49:49.854Z,68.62
2018-06-25T21:52:18.921Z,68.73
2018-06-25T21:54:48.255Z,68.62
2018-06-25T21:57:17.555Z,68.63
2018-06-25T21:59:46.884Z,69.63
2018-06-25T22:02:16.197Z,69.46
2018-06-25T22:04:45.523Z,69.85
2018-06-25T22:07:14.835Z,70.39
2018-06-25T22:09:44.233Z,71.10
2018-06-25T22:12:13.572Z,70.12
2018-06-25T22:14:42.929Z,71.20
2018-06-25T22:17:12.256Z,71.02
2018-06-25T22:19:41.559Z,71.45
2018-06-25T22:22:10.640Z,71.92
2018-06-25T22:24:39.959Z,71.62
2018-06-25T22:27:09.300Z,70.96
2018-06-25T22:29:38.607Z,71.58
2018-06-25T22:32:09.167Z,70.50
2018-06-25T22:34:38.484Z,70.72
2018-06-25T22:37:07.799Z,70.75
2018-06-25T22:39:37.104Z,71.51
2018-06-25T22:42:06.516Z,71.56
2018-06-25T22:44:35.836Z,71.53
2018-06-25T22:47:05.161Z,71.04
2018-06-25T22:49:34.460Z,70.22
2018-06-25T22:52:03.780Z,70.23
2018-06-25T22:54:32.839Z,70.75
2018-06-25T22:57:02.157Z,72.55
2018-06-25T22:59:31.463Z,72.60
2018-06-25T23:02:00.775Z,72.14
2018-06-25T23:04:30.079Z,71.50
2018-06-25T23:06:59.175Z,71.21
2018-06-25T23:09:28.488Z,71.86
2018-06-25T23:11:57.820Z,72.21
2018-06-25T23:14:27.139Z,72.83
2018-06-25T23:16:56.460Z,72.98
2018-06-25T23:19:25.786Z,74.11
2018-06-25T23:21:55.296Z,74.29
2018-06-25T23:24:24.609Z,73.14
2018-06-25T23:26:53.937Z,73.43
2018-06-25T23:29:23.243Z,72.63
2018-06-25T23:31:52.727Z,72.73
2018-06-25T23:34:22.031Z,72.30
2018-06-25T23:36:51.477Z,71.65
2018-06-25T23:39:20.792Z,71.54
2018-06-25T23:41:50.124Z,71.46
2018-06-25T23:44:19.437Z,71.50
2018-06-25T23:46:48.859Z,70.94
2018-06-25T23:49:18.163Z,70.63
2018-06-25T23:51:47.484Z,70.89
2018-06-25T23:54:16.555Z,71.04
2018-06-25T23:56:45.872Z,70.90
2018-06-25T23:59:15.180Z,71.02
